Terminal Aerodrome Forecast
Issued by NWS

Home | Current Version | Previous Version | Text Only | Print | Product List | Glossary On
Versions: 1 2 3 4 5 6 7 8 9 10 11 12 13 14 15
000
FTUS43 KABR 231700
TAFMBG
TAF
KMBG 231723Z 2318/2418 14018G27KT P6SM VCSH BKN080
     FM232300 33016G25KT P6SM SCT250
     FM240200 29010KT P6SM SKC=

USA.gov is the U.S. government's official web portal to all federal, state and local government web resources and services.